Time;durP1;ratioP1;P1;durP2;ratioP2;P2;SDS_P1;SDS_P2;PMS_P1;PMS_P2;Temp;Humidity;BMP_temperature;BMP_pressure;BME280_temperature;BME280_humidity;BME280_pressure;Samples;Min_cycle;Max_cycle;Signal;HPM_P1;HPM_P2
2021/04/15 00:01:56;;;;;;;6.43;4.88;;;;;;;9.74;50.12;99983.31;5031960;28;20101;-63
2021/04/15 00:04:23;;;;;;;7.97;4.93;;;;;;;9.52;50.73;99986.38;5032774;28;20075;-67
2021/04/15 00:06:49;;;;;;;7.05;5.13;;;;;;;9.65;50.11;99992.13;5028121;28;20053;-64
2021/04/15 00:09:18;;;;;;;6.80;4.72;;;;;;;9.52;50.28;99989.03;5034294;28;20172;-66
2021/04/15 00:11:44;;;;;;;5.25;4.05;;;;;;;9.55;50.35;99999.31;5033201;28;20211;-64
2021/04/15 00:14:12;;;;;;;8.25;4.70;;;;;;;9.59;50.06;100006.78;5038362;28;20026;-63
2021/04/15 00:16:37;;;;;;;8.32;4.82;;;;;;;9.61;49.96;100006.63;5033400;28;20227;-63
2021/04/15 00:19:04;;;;;;;6.93;4.72;;;;;;;9.54;50.87;100005.56;5030282;28;20284;-67
2021/04/15 00:21:30;;;;;;;7.47;4.82;;;;;;;9.63;50.27;100009.13;5038965;28;20060;-63
2021/04/15 00:23:55;;;;;;;5.95;4.57;;;;;;;9.61;50.25;100017.22;5032951;28;20021;-64
2021/04/15 00:26:23;;;;;;;5.80;4.60;;;;;;;9.35;51.25;100005.66;5030720;28;20074;-66
2021/04/15 00:28:50;;;;;;;6.88;5.00;;;;;;;9.39;50.88;99999.97;5030384;28;20317;-66
2021/04/15 00:31:16;;;;;;;7.00;4.70;;;;;;;9.63;50.67;100003.84;5033431;28;20116;-64
2021/04/15 00:33:41;;;;;;;6.88;4.97;;;;;;;9.51;50.74;100014.63;5028668;28;20025;-67
2021/04/15 00:36:07;;;;;;;6.07;4.38;;;;;;;9.49;51.10;100008.66;5030867;28;20041;-63
2021/04/15 00:38:33;;;;;;;7.57;4.85;;;;;;;9.54;50.92;100002.94;5024415;28;20335;-64
2021/04/15 00:40:59;;;;;;;6.38;4.75;;;;;;;9.48;51.21;99991.13;5029934;28;21977;-66
2021/04/15 00:43:28;;;;;;;5.28;4.18;;;;;;;9.44;51.26;99996.88;5039292;28;20374;-63
2021/04/15 00:45:54;;;;;;;5.00;4.10;;;;;;;9.52;51.04;99994.31;5041578;28;20107;-66
2021/04/15 00:48:33;;;;;;;8.70;4.72;;;;;;;9.48;51.17;99995.59;5032274;28;20033;-63
2021/04/15 00:51:02;;;;;;;7.47;4.60;;;;;;;9.20;51.87;99992.09;5033258;28;20219;-67
2021/04/15 00:53:33;;;;;;;6.00;4.68;;;;;;;9.12;52.42;99969.06;5038092;28;20059;-64
2021/04/15 00:55:59;;;;;;;6.38;5.00;;;;;;;9.19;52.03;99974.59;5032051;28;20076;-64
2021/04/15 00:58:27;;;;;;;4.78;4.00;;;;;;;9.05;52.32;99936.28;5035098;28;20048;-63
2021/04/15 01:00:52;;;;;;;5.93;4.22;;;;;;;8.89;52.83;99971.25;5027515;28;20037;-64
2021/04/15 01:03:18;;;;;;;6.90;4.47;;;;;;;8.89;53.56;99971.25;5026355;28;20032;-63
2021/04/15 01:05:46;;;;;;;12.82;4.85;;;;;;;9.14;52.81;99980.31;5029266;28;20034;-64
2021/04/15 01:08:12;;;;;;;7.72;4.75;;;;;;;9.18;52.83;99973.75;5034959;28;20348;-66
2021/04/15 01:10:42;;;;;;;8.05;4.60;;;;;;;9.04;52.98;99970.78;5036902;28;20234;-66
2021/04/15 01:13:22;;;;;;;5.45;3.78;;;;;;;9.08;52.39;99967.69;5029211;28;20307;-64
2021/04/15 01:16:15;;;;;;;7.68;4.50;;;;;;;9.08;52.37;99974.78;5032811;28;20185;-66
2021/04/15 01:19:08;;;;;;;5.97;4.53;;;;;;;9.14;52.86;99974.22;5031602;28;20236;-66
2021/04/15 01:21:52;;;;;;;5.75;4.28;;;;;;;9.15;52.27;99978.50;5038170;28;20025;-66
2021/04/15 01:24:34;;;;;;;5.35;4.32;;;;;;;9.23;52.88;99976.78;5038150;28;20373;-67
2021/04/15 01:27:36;;;;;;;5.57;4.22;;;;;;;9.36;52.15;99984.38;5042868;28;20060;-66
2021/04/15 01:30:11;;;;;;;5.38;3.90;;;;;;;9.27;52.21;99972.03;5041981;28;20587;-63
2021/04/15 01:33:20;;;;;;;5.18;4.15;;;;;;;9.15;52.74;99973.22;5037268;28;20215;-64
2021/04/15 01:35:57;;;;;;;5.82;3.90;;;;;;;9.06;52.64;99969.66;4996125;28;20046;-64
2021/04/15 01:38:37;;;;;;;4.72;3.78;;;;;;;9.40;52.11;99977.00;5027210;28;20455;-66
2021/04/15 01:41:22;;;;;;;4.60;3.63;;;;;;;9.47;51.69;99980.72;5029088;28;20033;-66
2021/04/15 01:43:55;;;;;;;4.97;3.83;;;;;;;9.34;52.25;99977.56;5030993;28;20263;-66
2021/04/15 01:46:26;;;;;;;7.97;4.15;;;;;;;9.34;52.36;99982.84;5023680;28;20098;-64
2021/04/15 01:48:53;;;;;;;6.88;4.40;;;;;;;9.69;51.50;99982.91;5036424;28;20192;-66
2021/04/15 01:51:51;;;;;;;6.40;4.50;;;;;;;9.54;51.39;99974.69;5033886;28;20184;-64
2021/04/15 01:54:16;;;;;;;5.18;3.92;;;;;;;9.47;51.91;99981.53;5026699;28;20261;-64
2021/04/15 01:56:51;;;;;;;5.80;4.47;;;;;;;9.46;51.96;99979.06;5028930;28;20045;-63
2021/04/15 01:59:26;;;;;;;5.50;4.15;;;;;;;9.24;52.76;99974.97;5026133;28;20346;-64
2021/04/15 02:01:54;;;;;;;6.50;4.57;;;;;;;9.27;52.56;99961.47;5030311;28;20061;-64
2021/04/15 02:04:25;;;;;;;5.30;4.00;;;;;;;9.33;52.05;99979.38;5024599;28;20042;-63
2021/04/15 02:06:57;;;;;;;5.63;4.55;;;;;;;9.29;52.29;99978.00;5035679;28;20022;-67
2021/04/15 02:09:23;;;;;;;7.45;4.50;;;;;;;9.19;51.32;99975.44;5023672;28;20034;-66
2021/04/15 02:11:58;;;;;;;5.10;4.13;;;;;;;9.13;51.70;99976.00;5032238;28;20025;-63
2021/04/15 02:14:27;;;;;;;6.80;4.40;;;;;;;8.98;51.28;99988.03;5027557;28;20332;-64
2021/04/15 02:16:54;;;;;;;6.00;4.20;;;;;;;9.06;51.22;99980.22;5028581;28;20377;-64
2021/04/15 02:19:37;;;;;;;5.32;3.83;;;;;;;8.71;51.56;99983.56;5031562;28;20050;-63
2021/04/15 02:22:29;;;;;;;6.80;3.80;;;;;;;8.92;51.24;99986.81;5027785;28;20279;-64
2021/04/15 02:25:05;;;;;;;8.25;4.07;;;;;;;8.70;51.60;99996.91;5025001;28;20076;-64
2021/04/15 02:27:43;;;;;;;7.72;4.03;;;;;;;8.70;51.30;99994.28;5032081;28;20032;-64
2021/04/15 02:30:18;;;;;;;5.75;3.63;;;;;;;8.80;50.58;100003.81;5026342;28;20037;-63
2021/04/15 02:33:07;;;;;;;4.40;3.10;;;;;;;8.74;50.71;100000.94;5036248;28;20029;-64
2021/04/15 02:35:47;;;;;;;5.50;3.83;;;;;;;8.71;50.83;100002.03;5035271;28;20065;-64
2021/04/15 02:38:15;;;;;;;9.15;5.38;;;;;;;8.83;50.20;100005.34;5032612;28;20033;-66
2021/04/15 02:41:11;;;;;;;5.50;3.88;;;;;;;8.71;49.94;100009.13;5037246;28;20267;-66
2021/04/15 02:44:00;;;;;;;10.13;3.63;;;;;;;8.55;50.34;100007.94;5022578;28;21947;-64
2021/04/15 02:46:35;;;;;;;5.18;3.40;;;;;;;8.59;50.41;100009.31;5034704;28;20029;-63
2021/04/15 02:49:04;;;;;;;4.95;3.95;;;;;;;8.33;50.61;99997.69;5030386;28;20038;-63
2021/04/15 02:51:40;;;;;;;4.80;3.50;;;;;;;8.39;50.83;100012.97;5036888;28;20080;-66
2021/04/15 02:54:05;;;;;;;6.60;4.22;;;;;;;8.34;50.93;100007.28;5029428;28;20053;-66
2021/04/15 02:56:39;;;;;;;6.72;4.25;;;;;;;8.41;50.61;100010.19;5040739;28;20049;-63
2021/04/15 02:59:13;;;;;;;5.82;4.30;;;;;;;8.25;51.19;100013.34;5043660;28;20078;-66
2021/04/15 03:01:44;;;;;;;8.05;4.82;;;;;;;8.26;50.69;100018.47;5035763;28;20226;-66
2021/04/15 03:04:14;;;;;;;7.63;4.47;;;;;;;8.31;50.37;100008.31;5039267;28;20095;-66
2021/04/15 03:06:44;;;;;;;8.50;3.65;;;;;;;8.02;50.94;99981.16;5043032;28;20025;-64
2021/04/15 03:09:12;;;;;;;5.90;3.97;;;;;;;8.19;51.14;100005.97;5033900;28;20041;-66
2021/04/15 03:11:37;;;;;;;5.25;3.50;;;;;;;8.19;50.39;100017.38;5030947;28;20042;-66
2021/04/15 03:14:08;;;;;;;5.10;3.53;;;;;;;8.07;51.06;100013.22;5031075;28;20045;-66
2021/04/15 03:16:39;;;;;;;5.20;3.65;;;;;;;8.23;50.29;100017.91;5027474;28;20017;-66
2021/04/15 03:19:17;;;;;;;7.13;3.17;;;;;;;8.15;50.04;100015.97;5034371;28;20317;-66
2021/04/15 03:21:58;;;;;;;5.38;3.50;;;;;;;8.16;50.68;100019.44;5033419;28;20354;-63
2021/04/15 03:24:29;;;;;;;5.20;3.88;;;;;;;8.25;50.44;100023.88;5032867;28;20143;-64
2021/04/15 03:27:03;;;;;;;5.45;3.70;;;;;;;8.04;50.28;100024.03;5033436;28;20238;-66
2021/04/15 03:29:37;;;;;;;5.90;4.10;;;;;;;8.14;50.76;100022.22;5028926;28;20026;-65
2021/04/15 03:32:30;;;;;;;6.53;3.20;;;;;;;8.26;49.98;100030.81;5032262;28;20032;-64
2021/04/15 03:35:21;;;;;;;5.25;3.92;;;;;;;8.35;50.00;100034.50;5029000;28;20033;-64
2021/04/15 03:37:54;;;;;;;4.45;3.15;;;;;;;8.32;49.60;100046.09;5039448;28;20029;-66
2021/04/15 03:40:23;;;;;;;5.80;3.47;;;;;;;8.30;49.89;100040.97;5031448;28;20086;-65
2021/04/15 03:42:54;;;;;;;4.32;3.38;;;;;;;8.31;50.00;100039.16;5032357;28;20018;-65
2021/04/15 03:45:27;;;;;;;5.82;3.20;;;;;;;8.45;50.09;100059.06;5043803;28;20029;-66
2021/04/15 03:48:06;;;;;;;8.93;3.92;;;;;;;8.44;50.17;100057.41;5041600;28;20056;-66
2021/04/15 03:50:46;;;;;;;5.68;3.83;;;;;;;8.43;50.41;100063.66;5031727;28;20037;-64
2021/04/15 03:53:16;;;;;;;5.70;4.28;;;;;;;8.48;50.24;100069.34;5027353;28;20236;-64
2021/04/15 03:55:47;;;;;;;6.45;4.47;;;;;;;8.40;50.15;100066.56;5039375;28;20044;-65
2021/04/15 03:58:17;;;;;;;9.32;5.38;;;;;;;8.58;49.71;100070.16;5032698;28;20037;-66
2021/04/15 04:00:48;;;;;;;7.15;4.10;;;;;;;8.74;49.57;100075.69;5028042;28;20243;-64
2021/04/15 04:03:18;;;;;;;6.32;4.22;;;;;;;8.61;49.60;100075.97;5029824;28;20033;-64
2021/04/15 04:06:07;;;;;;;8.32;4.35;;;;;;;8.55;49.55;100078.34;5030931;28;20037;-66
2021/04/15 04:08:47;;;;;;;8.18;4.53;;;;;;;8.46;49.38;100072.13;5024988;28;20044;-63
2021/04/15 04:11:20;;;;;;;4.20;3.45;;;;;;;8.39;49.53;100059.63;5034217;28;20025;-66
2021/04/15 04:13:55;;;;;;;5.82;3.75;;;;;;;8.39;49.13;100072.81;5033976;28;20300;-66
2021/04/15 04:17:07;;;;;;;5.97;3.30;;;;;;;8.42;49.93;100083.94;5028796;28;20029;-63
2021/04/15 04:19:50;;;;;;;5.47;3.28;;;;;;;8.47;49.32;100080.88;5018549;28;20033;-66
2021/04/15 04:22:21;;;;;;;8.15;3.90;;;;;;;8.48;49.92;100069.34;5031563;28;20025;-64
2021/04/15 04:24:47;;;;;;;8.40;4.35;;;;;;;8.44;49.23;100086.41;5030987;28;20026;-66
2021/04/15 04:27:30;;;;;;;7.30;4.55;;;;;;;8.51;48.85;100075.16;5027929;28;20101;-66
2021/04/15 04:30:11;;;;;;;10.05;4.30;;;;;;;8.45;49.94;100083.63;5036863;28;20032;-63
2021/04/15 04:32:39;;;;;;;7.88;3.78;;;;;;;8.50;49.05;100091.13;5033716;28;20211;-65
2021/04/15 04:35:07;;;;;;;9.05;4.53;;;;;;;8.55;49.13;100088.91;5032592;28;20026;-64
2021/04/15 04:37:48;;;;;;;9.15;4.15;;;;;;;8.63;48.97;100091.69;5026813;28;20025;-63
2021/04/15 04:40:22;;;;;;;7.03;3.92;;;;;;;8.67;49.37;100092.22;5030381;28;20040;-64
2021/04/15 04:42:59;;;;;;;9.02;4.85;;;;;;;8.68;49.01;100088.63;5028490;28;20285;-65
2021/04/15 04:45:25;;;;;;;8.27;5.10;;;;;;;8.64;49.57;100091.53;5026530;28;20038;-64
2021/04/15 04:48:16;;;;;;;10.60;4.38;;;;;;;8.57;49.39;100087.78;5030542;28;20033;-63
2021/04/15 04:50:51;;;;;;;5.25;3.72;;;;;;;8.52;49.20;100095.31;5031685;28;20374;-64
2021/04/15 04:53:22;;;;;;;7.60;3.83;;;;;;;8.56;48.93;100088.78;5030131;28;20037;-65
2021/04/15 04:56:00;;;;;;;5.53;3.80;;;;;;;8.52;49.77;100089.19;5033454;28;20147;-63
2021/04/15 04:58:26;;;;;;;8.05;4.75;;;;;;;8.53;49.67;100080.31;5028210;28;20041;-64
2021/04/15 05:00:55;;;;;;;14.93;7.60;;;;;;;8.47;49.80;100089.63;5029279;28;20192;-66
2021/04/15 05:03:23;;;;;;;14.50;7.20;;;;;;;8.70;49.68;100094.59;5036180;28;20037;-66
2021/04/15 05:05:49;;;;;;;12.52;6.57;;;;;;;8.87;49.29;100093.84;5030511;28;20029;-63
2021/04/15 05:08:20;;;;;;;8.98;4.78;;;;;;;8.88;48.41;100093.72;5031984;28;20366;-64
2021/04/15 05:10:49;;;;;;;10.20;5.07;;;;;;;8.99;49.01;100103.28;5028390;28;20033;-66
2021/04/15 05:13:23;;;;;;;7.75;5.10;;;;;;;9.34;48.42;100109.69;5035577;28;20036;-66
2021/04/15 05:15:49;;;;;;;8.27;5.03;;;;;;;9.37;47.98;100102.34;5030139;28;20021;-66
2021/04/15 05:18:17;;;;;;;9.98;4.68;;;;;;;9.55;47.71;100099.75;5035506;28;20525;-66
2021/04/15 05:20:44;;;;;;;9.88;5.47;;;;;;;9.61;47.40;100099.16;5038652;28;20092;-66
2021/04/15 05:23:18;;;;;;;6.88;5.00;;;;;;;9.63;47.89;100093.75;5038214;28;20247;-64
2021/04/15 05:26:14;;;;;;;8.00;4.53;;;;;;;9.45;47.51;100101.63;5042046;28;20075;-66
2021/04/15 05:28:41;;;;;;;4.60;3.63;;;;;;;9.35;47.09;100100.78;5040644;28;20448;-63
2021/04/15 05:31:09;;;;;;;6.80;4.47;;;;;;;9.27;48.34;100097.06;5042332;28;20069;-66
2021/04/15 05:33:37;;;;;;;6.20;4.50;;;;;;;9.45;48.63;100101.63;5037821;28;20083;-66
2021/04/15 05:36:09;;;;;;;7.63;4.47;;;;;;;9.46;47.82;100103.28;5042274;28;20234;-65
2021/04/15 05:38:45;;;;;;;5.97;4.07;;;;;;;9.76;46.51;100108.28;5037119;28;20033;-64
2021/04/15 05:41:24;;;;;;;4.70;3.85;;;;;;;10.21;45.69;100104.81;5040138;28;20211;-64
2021/04/15 05:43:55;;;;;;;7.07;3.83;;;;;;;10.67;44.58;100102.91;5033180;28;20353;-66
2021/04/15 05:46:24;;;;;;;9.13;4.10;;;;;;;10.91;44.03;100108.38;5026368;28;20038;-64
2021/04/15 05:49:00;;;;;;;7.60;4.43;;;;;;;11.19;43.70;100117.84;5030878;28;20030;-66
2021/04/15 05:51:39;;;;;;;8.35;4.75;;;;;;;11.41;43.94;100105.03;5026018;28;20053;-66
2021/04/15 05:54:10;;;;;;;7.78;3.70;;;;;;;11.16;42.39;100110.19;5028272;28;20037;-64
2021/04/15 05:56:51;;;;;;;6.72;3.75;;;;;;;10.86;43.44;100111.50;5028789;28;20025;-66
2021/04/15 05:59:31;;;;;;;7.90;3.97;;;;;;;10.79;44.70;100112.28;5036588;28;20089;-63
2021/04/15 06:02:08;;;;;;;4.80;3.78;;;;;;;10.39;45.10;100110.94;5040652;28;20275;-67
2021/04/15 06:04:39;;;;;;;8.20;5.68;;;;;;;10.18;45.58;100097.97;5029877;28;20048;-66
2021/04/15 06:07:08;;;;;;;10.10;5.40;;;;;;;10.10;45.37;100099.69;5031043;28;20087;-66
2021/04/15 06:09:33;;;;;;;6.85;4.45;;;;;;;10.12;45.49;100118.91;5030119;28;20108;-67
2021/04/15 06:12:17;;;;;;;6.80;4.60;;;;;;;10.29;45.87;100118.13;5033218;28;20036;-66
2021/04/15 06:15:11;;;;;;;8.82;4.72;;;;;;;10.15;46.05;100113.31;5037569;28;20033;-67
2021/04/15 06:17:40;;;;;;;5.82;4.40;;;;;;;10.10;46.48;100116.41;5033797;28;20041;-64
2021/04/15 06:20:09;;;;;;;6.95;4.63;;;;;;;10.26;46.52;100121.06;5038024;28;20025;-64
2021/04/15 06:22:43;;;;;;;9.27;4.82;;;;;;;10.20;47.70;100127.78;5038352;28;20074;-66
2021/04/15 06:25:19;;;;;;;9.07;4.72;;;;;;;10.61;47.14;100116.78;5037653;28;20095;-66
2021/04/15 06:27:48;;;;;;;6.95;4.57;;;;;;;10.65;46.60;100108.38;5038253;28;20218;-67
2021/04/15 06:30:22;;;;;;;8.35;4.10;;;;;;;10.80;46.58;100114.78;5036828;28;20038;-66
2021/04/15 06:32:59;;;;;;;5.20;3.90;;;;;;;10.58;46.83;100109.97;5038171;28;20067;-66
2021/04/15 06:35:26;;;;;;;6.03;4.28;;;;;;;10.78;46.01;100108.78;5038080;28;20373;-64
2021/04/15 06:38:16;;;;;;;5.38;4.38;;;;;;;10.76;45.38;100110.75;5043725;28;20056;-63
2021/04/15 06:41:07;;;;;;;10.25;4.50;;;;;;;10.49;46.32;100113.53;5043236;28;20100;-64
2021/04/15 06:43:45;;;;;;;7.28;4.07;;;;;;;10.54;46.79;100112.09;5043226;28;20037;-66
2021/04/15 06:46:35;;;;;;;5.80;3.88;;;;;;;10.49;47.24;100105.59;5043493;28;20049;-64
2021/04/15 06:49:39;;;;;;;8.20;3.97;;;;;;;10.35;47.35;100122.81;5044109;28;20030;-64
2021/04/15 06:52:18;;;;;;;6.70;4.05;;;;;;;10.69;46.05;100112.38;5044079;28;20083;-67
2021/04/15 06:55:08;;;;;;;5.00;4.00;;;;;;;10.65;46.14;100115.47;5043615;28;20128;-64
2021/04/15 06:58:02;;;;;;;5.80;3.90;;;;;;;11.11;45.60;100109.84;5043867;28;20037;-64
2021/04/15 07:00:27;;;;;;;6.95;4.53;;;;;;;11.83;44.91;100119.19;5042812;28;20104;-67
2021/04/15 07:03:10;;;;;;;6.57;3.85;;;;;;;12.69;42.18;100112.69;5044361;28;20036;-63
2021/04/15 07:09:35;;;;;;;5.75;3.50;;;;;;;13.59;39.83;100105.41;5039247;28;20056;-64
2021/04/15 07:12:10;;;;;;;5.32;3.72;;;;;;;13.54;39.49;100099.78;5044058;28;20215;-64
2021/04/15 07:14:35;;;;;;;;;;;;;;;13.43;38.95;100107.09;5043476;28;20036;-66
2021/04/15 07:17:31;;;;;;;7.60;3.42;;;;;;;13.01;40.13;100111.84;5042715;28;19921;-64
2021/04/15 07:20:34;;;;;;;4.75;3.45;;;;;;;12.95;41.01;100115.16;5042619;28;20109;-66
2021/04/15 07:23:34;;;;;;;5.85;4.28;;;;;;;13.20;41.29;100119.47;5029595;28;20045;-64
2021/04/15 07:26:39;;;;;;;5.55;4.18;;;;;;;13.39;40.04;100113.78;5042900;28;20201;-64
2021/04/15 07:29:16;;;;;;;6.70;4.22;;;;;;;13.35;40.68;100112.44;5040055;28;20108;-64
2021/04/15 07:32:20;;;;;;;6.25;4.10;;;;;;;13.60;40.25;100107.06;5043202;28;20379;-67
2021/04/15 07:35:13;;;;;;;8.27;3.83;;;;;;;13.52;39.27;100109.75;5027305;28;20060;-66
2021/04/15 07:38:02;;;;;;;6.13;4.40;;;;;;;13.99;39.45;100097.22;5042434;28;20032;-67
2021/04/15 07:40:46;;;;;;;4.93;3.88;;;;;;;14.58;38.90;100100.19;5035292;28;20037;-64
2021/04/15 07:43:43;;;;;;;4.68;3.55;;;;;;;14.16;38.11;100105.13;5036075;28;20093;-66
2021/04/15 07:46:33;;;;;;;5.55;3.38;;;;;;;14.48;37.35;100096.09;5034642;28;20029;-67
2021/04/15 07:49:24;;;;;;;6.88;3.97;;;;;;;14.88;37.31;100092.28;5036004;28;20029;-64
2021/04/15 07:51:52;;;;;;;4.97;3.85;;;;;;;14.81;36.69;100086.84;5032703;28;20189;-67
2021/04/15 07:54:41;;;;;;;6.40;3.65;;;;;;;14.96;36.94;100085.03;5034092;28;20104;-64
2021/04/15 07:57:15;;;;;;;7.35;4.30;;;;;;;15.19;36.80;100084.13;5036295;28;20250;-64
2021/04/15 07:59:50;;;;;;;9.07;4.13;;;;;;;14.92;38.04;100088.25;5036165;28;20049;-67
2021/04/15 08:02:34;;;;;;;6.38;4.03;;;;;;;14.80;37.29;100087.84;5040519;28;20254;-64
2021/04/15 08:05:14;;;;;;;6.03;3.83;;;;;;;15.46;36.45;100090.66;5041521;28;20041;-64
2021/04/15 08:08:14;;;;;;;5.07;3.97;;;;;;;15.71;35.75;100086.72;5035193;28;20048;-64
2021/04/15 08:10:39;;;;;;;5.60;4.10;;;;;;;16.09;34.22;100083.88;5032929;28;20025;-64
2021/04/15 08:13:13;;;;;;;5.50;4.00;;;;;;;16.23;33.68;100080.31;5038155;28;20029;-67
2021/04/15 08:15:48;;;;;;;6.72;3.42;;;;;;;15.77;34.05;100082.47;5036160;28;20092;-67
2021/04/15 08:18:37;;;;;;;3.88;3.40;;;;;;;15.83;34.51;100082.56;5041789;28;20042;-63
2021/04/15 08:21:30;;;;;;;5.40;3.53;;;;;;;16.23;33.49;100083.81;5041680;28;20041;-65
2021/04/15 08:24:16;;;;;;;6.72;3.00;;;;;;;16.38;32.25;100078.41;5042056;28;20049;-64
2021/04/15 08:27:02;;;;;;;4.85;2.85;;;;;;;16.39;31.69;100076.56;5041473;28;20041;-64
2021/04/15 08:29:27;;;;;;;3.92;3.17;;;;;;;16.29;32.95;100074.19;5040728;28;20034;-64
2021/04/15 08:32:28;;;;;;;4.10;2.47;;;;;;;16.31;32.76;100082.84;5041542;28;20025;-67
2021/04/15 08:35:10;;;;;;;4.15;2.90;;;;;;;16.42;31.89;100071.66;4961199;29;20332;-67
2021/04/15 08:37:49;;;;;;;4.15;2.67;;;;;;;16.37;31.44;100068.72;5034633;28;20307;-63
2021/04/15 08:40:40;;;;;;;3.05;2.72;;;;;;;16.48;31.17;100046.81;5041257;28;20038;-67
2021/04/15 08:43:29;;;;;;;4.50;3.20;;;;;;;16.46;31.06;100053.38;5042070;28;20315;-64
2021/04/15 08:46:11;;;;;;;6.75;3.03;;;;;;;16.51;31.89;100057.13;5040990;28;20032;-65
2021/04/15 08:48:45;;;;;;;5.35;3.22;;;;;;;16.49;32.68;100048.47;5040662;28;20117;-66
2021/04/15 08:51:46;;;;;;;4.72;3.25;;;;;;;16.75;32.98;100050.59;5042031;28;20021;-64
2021/04/15 08:54:30;;;;;;;4.28;3.53;;;;;;;16.53;32.40;100048.91;5041268;28;20079;-64
2021/04/15 08:57:09;;;;;;;6.18;2.63;;;;;;;16.29;31.18;100053.66;5041386;28;20057;-64
2021/04/15 08:59:40;;;;;;;5.55;3.05;;;;;;;16.56;32.03;100054.72;5040627;28;20085;-67
2021/04/15 09:02:50;;;;;;;4.00;3.00;;;;;;;15.65;33.51;100052.78;5040516;28;20029;-67
2021/04/15 09:05:32;;;;;;;4.13;3.03;;;;;;;15.80;34.03;100047.38;5028386;28;20250;-64
2021/04/15 09:08:26;;;;;;;3.47;2.97;;;;;;;15.92;33.67;100051.22;5041182;28;20439;-64
2021/04/15 09:11:29;;;;;;;6.20;3.92;;;;;;;16.02;33.79;100038.38;5041142;28;20033;-64
2021/04/15 09:14:08;;;;;;;4.80;3.55;;;;;;;16.06;33.30;100039.66;5041711;28;20048;-66
2021/04/15 09:16:45;;;;;;;3.67;2.60;;;;;;;16.04;33.07;100043.53;5040408;28;20040;-66
2021/04/15 09:19:44;;;;;;;5.57;3.70;;;;;;;16.05;33.36;100034.50;5041550;28;20069;-65
2021/04/15 09:22:22;;;;;;;4.30;3.38;;;;;;;16.15;32.60;100022.50;5041608;28;20029;-65
2021/04/15 09:25:02;;;;;;;3.75;3.25;;;;;;;15.92;33.81;100035.19;5040700;28;20033;-64
2021/04/15 09:27:52;;;;;;;6.13;3.95;;;;;;;15.55;34.69;100036.97;5040809;28;20041;-64
2021/04/15 09:30:20;;;;;;;8.10;4.05;;;;;;;15.21;35.20;100034.91;5040601;28;20604;-64
2021/04/15 09:33:24;;;;;;;6.38;3.47;;;;;;;15.12;35.19;100028.00;5041664;28;20029;-65
2021/04/15 09:36:06;;;;;;;8.45;4.22;;;;;;;15.16;35.66;100028.47;5040098;28;20135;-65
2021/04/15 09:38:49;;;;;;;6.40;4.07;;;;;;;15.20;36.54;100027.91;5040791;28;20200;-64
2021/04/15 09:41:27;;;;;;;5.57;3.78;;;;;;;14.72;36.22;100031.94;5040046;28;20105;-66
2021/04/15 09:44:29;;;;;;;7.55;3.65;;;;;;;14.73;35.70;100027.44;5041190;28;20105;-64
2021/04/15 09:47:20;;;;;;;10.98;3.95;;;;;;;14.62;35.81;100024.22;5033830;28;20033;-64
2021/04/15 09:50:01;;;;;;;5.07;3.97;;;;;;;14.60;36.23;100020.06;5033317;28;20252;-66
2021/04/15 09:53:08;;;;;;;4.95;3.90;;;;;;;15.01;35.08;100018.63;5032211;28;20118;-66
2021/04/15 09:55:48;;;;;;;5.00;3.78;;;;;;;15.28;34.24;100025.16;5033353;28;20041;-64
2021/04/15 09:58:29;;;;;;;8.00;3.80;;;;;;;15.23;34.35;100018.72;5033421;28;20231;-67
2021/04/15 10:01:02;;;;;;;4.90;3.90;;;;;;;14.90;35.61;99997.75;5032199;28;20342;-67
2021/04/15 10:03:30;;;;;;;7.57;4.03;;;;;;;15.06;34.99;100007.41;5032150;28;20112;-64
2021/04/15 10:05:59;;;;;;;4.88;4.13;;;;;;;15.00;35.81;100008.16;5035071;28;20030;-64
2021/04/15 10:08:55;;;;;;;5.78;4.15;;;;;;;15.48;34.96;99988.03;5035576;28;20068;-63
2021/04/15 10:11:44;;;;;;;7.93;4.22;;;;;;;15.59;33.27;99992.91;5034155;28;20344;-64
2021/04/15 10:14:18;;;;;;;4.75;3.72;;;;;;;15.74;33.77;99989.41;5032706;28;20043;-66
2021/04/15 10:16:43;;;;;;;;;;;;;;;15.68;33.11;99993.66;5033687;28;20048;-67
2021/04/15 10:19:47;;;;;;;7.10;4.60;;;;;;;15.98;33.17;99980.19;5033806;28;19921;-67
2021/04/15 10:22:42;;;;;;;6.45;4.10;;;;;;;15.58;33.35;99993.09;5031971;28;20041;-64
2021/04/15 10:25:18;;;;;;;7.93;4.45;;;;;;;15.59;33.35;99984.09;5012992;28;20053;-64
2021/04/15 10:27:52;;;;;;;6.97;3.67;;;;;;;15.78;32.52;99977.34;5034318;28;20038;-67
2021/04/15 10:30:31;;;;;;;6.00;3.97;;;;;;;15.85;32.36;99979.06;5035283;28;20044;-64
2021/04/15 10:33:11;;;;;;;13.63;7.47;;;;;;;16.14;31.94;99966.56;5034761;28;20042;-65
2021/04/15 10:35:57;;;;;;;5.85;4.25;;;;;;;16.03;32.86;99975.09;5039186;28;20052;-64
2021/04/15 10:38:35;;;;;;;4.78;3.75;;;;;;;16.04;32.04;99969.56;5037948;28;20284;-65
2021/04/15 10:41:00;;;;;;;16.05;12.98;;;;;;;15.90;33.30;99967.81;5038053;28;20022;-66
2021/04/15 10:43:43;;;;;;;27.00;24.33;;;;;;;15.34;34.42;99960.38;5040449;28;20037;-67
2021/04/15 10:46:14;;;;;;;6.57;4.97;;;;;;;15.31;33.57;99968.75;5033949;28;20376;-65
2021/04/15 10:48:59;;;;;;;8.15;4.93;;;;;;;15.31;33.91;99970.59;5033377;28;20045;-66
2021/04/15 10:51:35;;;;;;;6.30;5.00;;;;;;;15.54;34.14;99963.28;5033461;28;20037;-66
2021/04/15 10:54:32;;;;;;;7.25;5.10;;;;;;;15.24;33.79;99962.50;5035955;28;20272;-64
2021/04/15 10:57:01;;;;;;;6.38;4.35;;;;;;;14.93;34.73;99961.91;5033414;28;20041;-64
2021/04/15 10:59:36;;;;;;;7.18;4.65;;;;;;;15.33;33.49;99953.38;5032839;28;20025;-64
2021/04/15 11:02:16;;;;;;;9.05;4.88;;;;;;;15.75;33.67;99962.53;5036511;28;20068;-64
2021/04/15 11:04:41;;;;;;;6.25;4.78;;;;;;;15.99;32.61;99953.31;5045723;28;20310;-64
2021/04/15 11:07:09;;;;;;;7.78;4.90;;;;;;;16.27;33.81;99958.66;5042003;28;20261;-64
2021/04/15 11:09:39;;;;;;;7.43;5.10;;;;;;;16.37;32.70;99958.34;5040842;28;20057;-65
2021/04/15 11:12:14;;;;;;;8.07;5.57;;;;;;;16.44;33.67;99952.00;5036099;28;20029;-67
2021/04/15 11:14:46;;;;;;;8.63;5.20;;;;;;;16.56;32.57;99949.63;5037741;28;20033;-66
2021/04/15 11:17:23;;;;;;;6.43;4.50;;;;;;;16.72;31.95;99951.22;5036672;28;20061;-67
2021/04/15 11:19:50;;;;;;;6.07;4.60;;;;;;;16.59;32.86;99933.19;5038439;28;20033;-64
2021/04/15 11:22:20;;;;;;;7.55;4.32;;;;;;;16.55;31.98;99947.97;5037588;28;20079;-66
2021/04/15 11:24:46;;;;;;;5.35;4.10;;;;;;;16.60;30.60;99945.53;5037022;28;20252;-67
2021/04/15 11:27:13;;;;;;;6.75;5.00;;;;;;;16.56;31.80;99950.44;5036456;28;20076;-66
2021/04/15 11:29:48;;;;;;;4.85;4.03;;;;;;;16.24;31.74;99938.50;5036671;28;20061;-67
2021/04/15 11:32:22;;;;;;;;;;;;;;;16.57;31.11;99940.59;5037803;28;20027;-66
2021/04/15 11:35:00;;;;;;;5.90;4.90;;;;;;;16.70;32.04;99943.41;5036651;28;20174;-64
2021/04/15 11:37:26;;;;;;;5.57;4.45;;;;;;;16.48;31.02;99944.44;5035857;28;20041;-65
2021/04/15 11:40:11;;;;;;;5.13;4.07;;;;;;;16.41;31.64;99941.72;5034568;28;20048;-65
2021/04/15 11:42:38;;;;;;;6.85;4.70;;;;;;;16.46;32.49;99938.47;5037333;28;20184;-64
2021/04/15 11:45:04;;;;;;;12.55;5.00;;;;;;;16.38;31.61;99943.94;5034713;28;20096;-67
2021/04/15 11:47:32;;;;;;;9.55;5.07;;;;;;;16.07;32.39;99947.00;5038480;28;20319;-67
2021/04/15 11:50:17;;;;;;;7.43;5.10;;;;;;;16.21;32.79;99930.06;5037298;28;20041;-67
2021/04/15 11:52:46;;;;;;;6.50;4.90;;;;;;;15.77;32.39;99940.97;5026695;28;20095;-64
2021/04/15 11:55:23;;;;;;;6.60;4.93;;;;;;;15.79;33.69;99937.09;5036093;28;20100;-64
2021/04/15 11:57:58;;;;;;;6.68;4.65;;;;;;;15.78;32.85;99931.94;5035997;28;20083;-67
2021/04/15 12:00:34;;;;;;;7.32;5.05;;;;;;;15.93;32.11;99930.84;5037075;28;20036;-66
2021/04/15 12:02:59;;;;;;;9.25;4.78;;;;;;;16.16;32.04;99930.63;5041047;28;20071;-68
2021/04/15 12:05:30;;;;;;;5.97;4.55;;;;;;;16.13;32.12;99927.53;5039083;28;20037;-70
2021/04/15 12:08:20;;;;;;;10.18;5.00;;;;;;;15.98;32.74;99929.47;5050712;28;20303;-70
2021/04/15 12:10:50;;;;;;;7.03;5.30;;;;;;;16.05;31.93;99922.31;5035014;28;20041;-69
2021/04/15 12:13:23;;;;;;;7.70;4.88;;;;;;;15.88;32.79;99927.13;5035695;28;20044;-67
2021/04/15 12:16:15;;;;;;;6.10;4.47;;;;;;;16.06;32.30;99922.13;5036066;28;20136;-65
2021/04/15 12:18:50;;;;;;;7.90;5.05;;;;;;;16.16;33.10;99911.94;5031852;28;20060;-67
2021/04/15 12:21:25;;;;;;;7.32;5.18;;;;;;;16.04;33.15;99920.66;5036152;28;20247;-66
2021/04/15 12:24:16;;;;;;;9.48;5.72;;;;;;;15.71;32.67;99915.03;5035074;28;20410;-67